Ukiah Municipal Airport Ukiah US
ICAO: KUKI
IATA: UKI
Category: Medium
Scheduled Services: No

Elevation: 614 ft
TransAlt. 18000 ft.

Airport Communications:
ASOS:119.275
OAKLAND CNTR:127.8
OAKLAND RDO:122
CTAF/UNICOM:123

KUKI Zoom In..

Runways:

(A) RW 15 length 4423 ft width 150 ft
LOC 109.10 / hdg 151

(B) RW 33 length 4423 ft width 150 ft
LOC 109.10 / hdg 331

Location; KUKI
Day. 30 / Time. 00.29 Zulu
* Altimeter: 30.09
* Temperature: 13° c. 55.4°f.
* Wind from: 340° Speed 05 kn.
Dewpoint: 09° c.
Visibility: 10 Statute Miles.
Clouds: Broken 2100 ft.
Clouds: Broken 2800 ft.
Clouds: Overcast 3400 ft.
Conditions: Light Rain.

KUKI 300029Z AUTO 34005KT 10SM -RA BKN021 BKN028 OVC034 13/09 A3009 RMK AO2 RAB24 P0000 T01330094


Wind From 340°
Speed 05 kn.

 
 
jpsmedia worldairports.se 2020   terms of use